Terminal Aerodrome Forecast
Issued by NWS

Current Version | Previous Version | Text Only | Print | Product List | Glossary On
Versions: 1 2 3 4 5 6 7 8 9 10 11 12 13 14 15
489
FTUS43 KAPX 041538 AAA
TAFTVC
TAF AMD
KTVC 041538Z 0416/0512 36011G17KT P6SM -RA OVC007
     FM041700 33011G17KT P6SM OVC012
     FM042000 34013G22KT P6SM VCSH BKN030
     FM050200 35007KT P6SM BKN040=

USA.gov is the U.S. government's official web portal to all federal, state and local government web resources and services.